Time;durP1;ratioP1;P1;durP2;ratioP2;P2;SDS_P1;SDS_P2;PMS_P1;PMS_P2;Temp;Humidity;BMP_temperature;BMP_pressure;BME280_temperature;BME280_humidity;BME280_pressure;Samples;Min_cycle;Max_cycle;Signal;HPM_P1;HPM_P2
2023/01/11 00:00:18;;;;;;;5.43;4.47;;;8.60;99.90;;;;;;5115200;28;20718;-85
2023/01/11 00:02:45;;;;;;;6.13;4.50;;;8.60;99.90;;;;;;5116159;28;20399;-84
2023/01/11 00:05:11;;;;;;;5.25;4.10;;;8.60;99.90;;;;;;5116640;28;20428;-85
2023/01/11 00:07:38;;;;;;;5.30;3.53;;;8.50;99.90;;;;;;5114843;28;20283;-85
2023/01/11 00:10:05;;;;;;;6.00;4.53;;;8.50;99.90;;;;;;5116628;28;20172;-85
2023/01/11 00:12:30;;;;;;;5.75;4.13;;;8.50;99.90;;;;;;5114695;28;20195;-87
2023/01/11 00:14:56;;;;;;;5.73;4.33;;;8.50;99.90;;;;;;5115058;28;20659;-84
2023/01/11 00:17:22;;;;;;;5.90;4.27;;;8.50;99.90;;;;;;5114986;28;20556;-84
2023/01/11 00:19:48;;;;;;;7.83;5.73;;;8.50;99.90;;;;;;5116245;28;20529;-85
2023/01/11 00:22:14;;;;;;;5.13;4.30;;;8.50;99.90;;;;;;5114567;28;20325;-84
2023/01/11 00:24:39;;;;;;;6.72;4.50;;;8.40;99.90;;;;;;5114578;28;20194;-84
2023/01/11 00:27:05;;;;;;;5.60;4.23;;;8.40;99.90;;;;;;5115723;28;20545;-84
2023/01/11 00:29:31;;;;;;;6.03;4.67;;;8.40;99.90;;;;;;5114553;28;20187;-87
2023/01/11 00:31:56;;;;;;;5.33;4.40;;;8.40;99.90;;;;;;5114412;28;20176;-84
2023/01/11 00:34:22;;;;;;;8.10;4.63;;;8.40;99.90;;;;;;5115934;28;20230;-84
2023/01/11 00:36:48;;;;;;;6.87;4.60;;;8.30;99.90;;;;;;5115628;28;20404;-82
2023/01/11 00:39:13;;;;;;;7.30;5.23;;;8.30;99.90;;;;;;5115683;28;20196;-85
2023/01/11 00:50:00;;;;;;;7.25;4.95;;;8.40;99.90;;;;;;5116026;28;20194;-85
2023/01/11 00:52:26;;;;;;;6.00;4.73;;;8.40;99.90;;;;;;5113869;28;20195;-86
2023/01/11 00:54:51;;;;;;;6.47;5.13;;;8.40;99.90;;;;;;5115170;28;20470;-85
2023/01/11 00:57:17;;;;;;;6.90;5.33;;;8.40;99.90;;;;;;5115197;28;20192;-87
2023/01/11 00:59:43;;;;;;;5.67;4.77;;;8.40;99.90;;;;;;5116811;28;20184;-86
2023/01/11 01:02:10;;;;;;;6.10;5.13;;;8.40;99.90;;;;;;5115327;28;20628;-83
2023/01/11 01:04:36;;;;;;;6.03;5.43;;;8.40;99.90;;;;;;5113858;28;20180;-85
2023/01/11 01:07:02;;;;;;;6.03;5.40;;;8.40;99.90;;;;;;5115032;28;20171;-85
2023/01/11 01:09:28;;;;;;;6.93;5.75;;;8.40;99.90;;;;;;5113767;28;20571;-86
2023/01/11 01:11:53;;;;;;;6.83;5.43;;;8.30;99.90;;;;;;5114923;28;20164;-84
2023/01/11 01:14:27;;;;;;;6.90;5.33;;;8.30;99.90;;;;;;5114952;28;20194;-83
2023/01/11 01:17:02;;;;;;;6.05;5.30;;;8.40;99.90;;;;;;5113512;28;20427;-87
2023/01/11 01:19:30;;;;;;;7.85;5.53;;;8.40;99.90;;;;;;5113489;28;20187;-85
2023/01/11 01:21:57;;;;;;;7.82;5.30;;;8.30;99.90;;;;;;5114748;28;20164;-85
2023/01/11 01:24:24;;;;;;;5.95;5.00;;;8.30;99.90;;;;;;5113798;28;20636;-84
2023/01/11 01:26:50;;;;;;;7.95;5.20;;;8.30;99.90;;;;;;5113286;28;20637;-86
2023/01/11 01:29:16;;;;;;;7.80;6.00;;;8.20;99.90;;;;;;5113692;28;20274;-85
2023/01/11 01:31:42;;;;;;;8.00;5.90;;;8.20;99.90;;;;;;5114934;28;20400;-84
2023/01/11 01:34:09;;;;;;;7.15;5.70;;;8.10;99.90;;;;;;5113577;28;21020;-85
2023/01/11 01:36:34;;;;;;;10.38;6.07;;;8.10;99.90;;;;;;5114495;28;20265;-84
2023/01/11 01:39:01;;;;;;;7.33;5.20;;;8.10;99.90;;;;;;5114402;28;20567;-84
2023/01/11 01:41:27;;;;;;;7.55;5.88;;;8.00;99.90;;;;;;5113094;28;20234;-85
2023/01/11 01:44:01;;;;;;;8.00;6.17;;;8.00;99.90;;;;;;5113127;28;20204;-85
2023/01/11 01:46:37;;;;;;;6.50;5.22;;;8.00;99.90;;;;;;5114410;28;20421;-86
2023/01/11 01:49:13;;;;;;;8.23;5.25;;;8.00;99.90;;;;;;5113087;28;20223;-85
2023/01/11 01:51:45;;;;;;;7.25;5.18;;;8.00;99.90;;;;;;5114435;28;20190;-83
2023/01/11 01:54:21;;;;;;;9.60;6.22;;;7.90;99.90;;;;;;5112841;28;20211;-87
2023/01/11 01:56:50;;;;;;;9.07;6.18;;;7.90;99.90;;;;;;5114429;28;20551;-84
2023/01/11 01:59:18;;;;;;;7.90;5.63;;;7.90;99.90;;;;;;5114200;28;20236;-83
2023/01/11 02:01:48;;;;;;;9.00;6.15;;;7.90;99.90;;;;;;5114185;28;20218;-84
2023/01/11 02:04:39;;;;;;;8.38;6.22;;;7.80;99.90;;;;;;5113347;28;20202;-86
2023/01/11 02:07:11;;;;;;;7.85;5.63;;;7.90;99.90;;;;;;5115809;28;20520;-86
2023/01/11 02:09:59;;;;;;;10.50;6.00;;;7.80;99.90;;;;;;5113295;28;20272;-85
2023/01/11 02:12:28;;;;;;;8.77;6.45;;;7.90;99.90;;;;;;5114070;28;20184;-84
2023/01/11 02:14:54;;;;;;;7.20;5.60;;;7.90;99.90;;;;;;5113029;28;20580;-85
2023/01/11 02:17:20;;;;;;;9.48;6.85;;;7.80;99.90;;;;;;5112768;28;20657;-84
2023/01/11 02:20:00;;;;;;;11.82;5.97;;;7.90;99.90;;;;;;5112774;28;20582;-86
2023/01/11 02:23:07;;;;;;;8.40;6.22;;;7.90;99.90;;;;;;5114021;28;20656;-86
2023/01/11 02:25:42;;;;;;;9.30;5.78;;;8.00;99.90;;;;;;5112847;28;20799;-83
2023/01/11 02:28:26;;;;;;;9.23;6.65;;;7.90;99.90;;;;;;5113949;28;20198;-84
2023/01/11 02:31:39;;;;;;;8.55;6.30;;;7.90;99.90;;;;;;5112426;28;20182;-85
2023/01/11 02:34:36;;;;;;;8.57;5.93;;;7.90;99.90;;;;;;5059609;28;20614;-85
2023/01/11 02:37:05;;;;;;;10.70;6.65;;;7.90;99.90;;;;;;5113677;28;20544;-85
2023/01/11 02:39:54;;;;;;;8.98;5.55;;;7.90;99.90;;;;;;5114050;28;20269;-84
2023/01/11 02:45:57;;;;;;;9.25;6.47;;;7.90;99.90;;;;;;5114121;28;20175;-85
2023/01/11 02:48:23;;;;;;;9.38;6.43;;;8.00;99.90;;;;;;5112776;28;20337;-83
2023/01/11 02:50:58;;;;;;;11.40;6.53;;;7.90;99.90;;;;;;5112582;28;20216;-85
2023/01/11 02:53:40;;;;;;;17.02;7.25;;;7.90;99.90;;;;;;5113574;28;20579;-86
2023/01/11 02:56:11;;;;;;;11.18;7.65;;;7.90;99.90;;;;;;5114046;28;20228;-84
2023/01/11 02:58:40;;;;;;;12.23;7.80;;;8.00;99.90;;;;;;5112339;28;20211;-87
2023/01/11 03:01:07;;;;;;;9.07;6.72;;;7.90;99.90;;;;;;5113639;28;20207;-84
2023/01/11 03:03:33;;;;;;;9.10;7.18;;;7.90;99.90;;;;;;5112289;28;20234;-83
2023/01/11 03:06:12;;;;;;;9.63;6.60;;;7.90;99.90;;;;;;5112524;28;20171;-84
2023/01/11 03:09:05;;;;;;;11.00;7.97;;;7.90;99.90;;;;;;5112883;28;20451;-84
2023/01/11 03:14:49;;;;;;;9.00;6.35;;;7.90;99.90;;;;;;5101618;28;20558;-83
2023/01/11 03:17:17;;;;;;;10.05;6.65;;;7.80;99.90;;;;;;5115975;28;20191;-87
2023/01/11 03:19:52;;;;;;;9.48;5.75;;;7.80;99.90;;;;;;5115787;28;20179;-87
2023/01/11 03:22:27;;;;;;;10.68;7.25;;;7.90;99.90;;;;;;5115826;28;20198;-87
2023/01/11 03:24:59;;;;;;;10.77;7.28;;;7.80;99.90;;;;;;5117638;28;20194;-86
2023/01/11 03:27:37;;;;;;;11.35;7.82;;;7.80;99.90;;;;;;5117059;28;20706;-84
2023/01/11 03:30:12;;;;;;;10.05;6.93;;;7.90;99.90;;;;;;5115924;28;20188;-86
2023/01/11 03:32:43;;;;;;;9.77;6.82;;;7.90;99.90;;;;;;5116873;28;20691;-87
2023/01/11 03:35:31;;;;;;;10.13;7.10;;;7.80;99.90;;;;;;5115779;28;20266;-85
2023/01/11 03:38:05;;;;;;;11.20;7.85;;;7.80;99.90;;;;;;5115594;28;20270;-84
2023/01/11 03:40:47;;;;;;;9.88;7.10;;;7.90;99.90;;;;;;5117162;28;20207;-84
2023/01/11 03:43:15;;;;;;;11.25;7.10;;;7.90;99.90;;;;;;5116558;28;20323;-83
2023/01/11 03:45:40;;;;;;;11.52;8.10;;;7.80;99.90;;;;;;5116675;28;20629;-85
2023/01/11 03:48:12;;;;;;;10.83;7.73;;;7.80;99.90;;;;;;5115376;28;20249;-85
2023/01/11 03:50:39;;;;;;;8.23;6.22;;;7.80;99.90;;;;;;5115301;28;20278;-87
2023/01/11 03:53:07;;;;;;;11.48;7.72;;;7.80;99.90;;;;;;5115214;28;20279;-84
2023/01/11 03:55:39;;;;;;;9.52;7.25;;;7.80;99.90;;;;;;5115143;28;20642;-87
2023/01/11 03:58:05;;;;;;;10.48;7.82;;;7.80;99.90;;;;;;5116489;27;20552;-86
2023/01/11 04:00:31;;;;;;;10.13;7.25;;;7.80;99.90;;;;;;5115194;28;20225;-86
2023/01/11 04:02:59;;;;;;;11.38;7.38;;;7.70;99.90;;;;;;5114945;28;20188;-86
2023/01/11 04:05:25;;;;;;;11.32;7.57;;;7.70;99.90;;;;;;5116811;28;20203;-84
2023/01/11 04:07:52;;;;;;;11.07;6.83;;;7.70;99.90;;;;;;5116106;28;20674;-84
2023/01/11 04:10:17;;;;;;;10.20;6.30;;;7.70;99.90;;;;;;5116720;28;20183;-87
2023/01/11 04:12:47;;;;;;;9.33;7.47;;;7.60;99.90;;;;;;5115016;28;20699;-84
2023/01/11 04:15:13;;;;;;;9.68;6.55;;;7.60;99.90;;;;;;5116687;28;20229;-83
2023/01/11 04:17:40;;;;;;;9.88;7.65;;;7.70;99.90;;;;;;5117340;28;20195;-85
2023/01/11 04:20:08;;;;;;;10.10;6.32;;;7.60;99.90;;;;;;5114575;28;20206;-86
2023/01/11 04:22:33;;;;;;;9.05;6.82;;;7.60;99.90;;;;;;5114185;28;20196;-83
2023/01/11 04:24:59;;;;;;;9.10;6.97;;;7.60;99.90;;;;;;5114643;28;20275;-87
2023/01/11 04:27:25;;;;;;;11.90;6.97;;;7.60;99.90;;;;;;5114494;28;20203;-85
2023/01/11 04:29:50;;;;;;;9.93;6.67;;;7.60;99.90;;;;;;5116328;28;20199;-86
2023/01/11 04:32:16;;;;;;;10.00;6.50;;;7.60;99.90;;;;;;5115632;28;20195;-83
2023/01/11 04:34:42;;;;;;;9.70;7.00;;;7.60;99.90;;;;;;5116082;28;20207;-86
2023/01/11 04:37:08;;;;;;;9.40;6.37;;;7.60;99.90;;;;;;5114360;28;20408;-84
2023/01/11 04:39:34;;;;;;;9.48;7.05;;;7.60;99.90;;;;;;5114361;28;20175;-86
2023/01/11 04:42:17;;;;;;;11.53;7.40;;;7.60;99.90;;;;;;5114163;28;20215;-85
2023/01/11 04:44:47;;;;;;;11.63;6.75;;;7.70;99.90;;;;;;5115819;28;20563;-85
2023/01/11 04:47:15;;;;;;;10.18;6.70;;;7.70;99.90;;;;;;5115376;28;20222;-83
2023/01/11 04:49:41;;;;;;;10.20;6.97;;;7.70;99.90;;;;;;5115679;28;20182;-84
2023/01/11 04:52:07;;;;;;;9.02;6.63;;;7.80;99.90;;;;;;5115407;28;20172;-84
2023/01/11 04:54:32;;;;;;;11.00;7.22;;;7.70;99.90;;;;;;5113885;28;20715;-86
2023/01/11 04:56:58;;;;;;;8.73;7.00;;;7.70;99.90;;;;;;5115277;28;20160;-83
2023/01/11 04:59:24;;;;;;;9.50;6.90;;;7.80;99.90;;;;;;5113771;28;20180;-86
2023/01/11 05:01:50;;;;;;;10.17;6.13;;;7.70;99.90;;;;;;5115045;28;20268;-83
2023/01/11 05:04:15;;;;;;;10.00;7.73;;;7.70;99.90;;;;;;5115399;28;20258;-86
2023/01/11 05:06:41;;;;;;;9.80;7.13;;;7.70;99.90;;;;;;5114995;28;20393;-84
2023/01/11 05:09:12;;;;;;;8.57;6.90;;;7.70;99.90;;;;;;5115535;28;20242;-84
2023/01/11 05:11:38;;;;;;;11.85;8.20;;;7.70;99.90;;;;;;5115067;28;20161;-83
2023/01/11 05:14:04;;;;;;;11.57;7.50;;;7.70;99.90;;;;;;5115062;28;20202;-84
2023/01/11 05:16:29;;;;;;;11.23;6.70;;;7.70;99.90;;;;;;5114822;28;20175;-83
2023/01/11 05:18:57;;;;;;;9.33;7.23;;;7.70;99.90;;;;;;5114936;28;20215;-86
2023/01/11 05:21:34;;;;;;;10.98;7.65;;;7.70;99.90;;;;;;5113215;28;20231;-84
2023/01/11 05:24:03;;;;;;;8.52;5.93;;;7.70;99.90;;;;;;5114871;28;20278;-86
2023/01/11 05:26:34;;;;;;;11.48;6.00;;;7.70;99.90;;;;;;5113280;28;20207;-84
2023/01/11 05:29:02;;;;;;;10.70;6.63;;;7.70;99.90;;;;;;5114828;28;20207;-85
2023/01/11 05:31:29;;;;;;;7.70;5.55;;;7.60;99.90;;;;;;5097363;28;20176;-83
2023/01/11 05:33:56;;;;;;;11.70;6.63;;;7.60;99.90;;;;;;5093483;28;20208;-88
2023/01/11 05:36:24;;;;;;;14.30;6.13;;;7.70;99.90;;;;;;5092367;28;20199;-84
2023/01/11 05:38:51;;;;;;;12.93;8.25;;;7.70;99.90;;;;;;5091835;28;20669;-87
2023/01/11 05:41:19;;;;;;;9.98;6.22;;;7.70;99.90;;;;;;5093028;28;20713;-85
2023/01/11 05:46:33;;;;;;;11.60;6.68;;;7.70;99.90;;;;;;5093500;28;20160;-83
2023/01/11 05:48:59;;;;;;;12.50;7.60;;;7.70;99.90;;;;;;5091995;28;20313;-84
2023/01/11 05:51:25;;;;;;;8.57;7.10;;;7.60;99.90;;;;;;5092845;28;20172;-86
2023/01/11 05:53:52;;;;;;;11.10;8.25;;;7.70;99.90;;;;;;5092402;28;20433;-87
2023/01/11 05:56:18;;;;;;;9.77;7.13;;;7.60;99.90;;;;;;5093625;28;20231;-87
2023/01/11 05:58:50;;;;;;;8.75;6.53;;;7.70;99.90;;;;;;5092683;28;20665;-84
2023/01/11 06:01:20;;;;;;;9.98;6.93;;;7.60;99.90;;;;;;5093895;28;20289;-84
2023/01/11 06:03:47;;;;;;;10.90;7.25;;;7.60;99.90;;;;;;5093869;28;20200;-86
2023/01/11 06:06:14;;;;;;;10.18;6.95;;;7.60;99.90;;;;;;5092439;28;20648;-85
2023/01/11 06:08:39;;;;;;;8.60;6.00;;;7.60;99.90;;;;;;5093482;28;20357;-86
2023/01/11 06:11:05;;;;;;;10.10;6.70;;;7.60;99.90;;;;;;5092773;28;20206;-84
2023/01/11 06:13:32;;;;;;;12.70;7.57;;;7.80;99.90;;;;;;5091944;28;20642;-83
2023/01/11 06:16:11;;;;;;;10.65;6.07;;;7.80;99.90;;;;;;5092441;28;20218;-84
2023/01/11 06:18:43;;;;;;;9.63;6.53;;;7.80;99.90;;;;;;5093361;28;20241;-84
2023/01/11 06:21:09;;;;;;;13.80;8.05;;;7.70;99.90;;;;;;5093467;28;20218;-83
2023/01/11 06:23:38;;;;;;;11.85;7.22;;;7.70;99.90;;;;;;5112605;28;20200;-83
2023/01/11 06:26:07;;;;;;;8.95;6.60;;;7.70;99.90;;;;;;5113617;28;20633;-83
2023/01/11 06:28:34;;;;;;;11.98;8.18;;;7.70;99.90;;;;;;5103626;28;20231;-85
2023/01/11 06:31:00;;;;;;;10.57;7.07;;;7.60;99.90;;;;;;5110041;28;20599;-83
2023/01/11 06:33:29;;;;;;;13.88;8.20;;;7.50;99.90;;;;;;5114008;28;20192;-82
2023/01/11 06:35:55;;;;;;;10.50;6.78;;;7.60;99.90;;;;;;5113839;28;20243;-85
2023/01/11 06:38:23;;;;;;;11.07;7.28;;;7.60;99.90;;;;;;5111447;28;20196;-82
2023/01/11 06:40:59;;;;;;;55.83;33.72;;;7.60;99.90;;;;;;5105552;28;20207;-86
2023/01/11 06:43:27;;;;;;;10.63;7.47;;;7.60;99.90;;;;;;5090821;28;20196;-84
2023/01/11 06:45:53;;;;;;;14.18;7.35;;;7.60;99.90;;;;;;5098830;28;20193;-85
2023/01/11 06:48:20;;;;;;;11.60;7.75;;;7.60;99.90;;;;;;5102662;28;20196;-85
2023/01/11 06:50:48;;;;;;;10.55;7.20;;;7.50;99.90;;;;;;5097504;28;20624;-84
2023/01/11 06:53:13;;;;;;;14.05;8.40;;;7.50;99.90;;;;;;5106060;28;20244;-82
2023/01/11 06:55:39;;;;;;;13.40;7.33;;;7.60;99.90;;;;;;5111133;28;20227;-83
2023/01/11 06:58:04;;;;;;;12.40;8.20;;;7.60;99.90;;;;;;5114734;28;20203;-85
2023/01/11 07:00:31;;;;;;;11.23;7.03;;;7.50;99.90;;;;;;5102980;28;20216;-84
2023/01/11 07:03:02;;;;;;;12.95;7.10;;;7.60;99.90;;;;;;5101224;28;20574;-85
2023/01/11 07:05:28;;;;;;;10.68;7.53;;;7.50;99.90;;;;;;5099006;28;20192;-83
2023/01/11 07:07:54;;;;;;;12.73;7.63;;;7.60;99.90;;;;;;5102853;28;20196;-86
2023/01/11 07:10:20;;;;;;;8.90;6.40;;;7.60;99.90;;;;;;5108788;28;20180;-83
2023/01/11 07:12:46;;;;;;;10.27;7.17;;;7.60;99.90;;;;;;5102621;28;20204;-84
2023/01/11 07:15:11;;;;;;;10.63;7.37;;;7.50;99.90;;;;;;5093798;28;20187;-85
2023/01/11 07:17:37;;;;;;;12.03;7.37;;;7.50;99.90;;;;;;5093141;28;20448;-86
2023/01/11 07:20:05;;;;;;;11.65;6.80;;;7.60;99.90;;;;;;5094933;28;20204;-86
2023/01/11 07:22:34;;;;;;;9.07;6.45;;;7.50;99.90;;;;;;5095795;28;20192;-82
2023/01/11 07:25:00;;;;;;;10.25;7.40;;;7.40;99.90;;;;;;5096839;28;20229;-84
2023/01/11 07:27:25;;;;;;;10.40;6.50;;;7.40;99.90;;;;;;5096315;28;20280;-84
2023/01/11 07:29:52;;;;;;;12.20;7.20;;;7.50;99.90;;;;;;5100982;28;20254;-83
2023/01/11 07:32:18;;;;;;;13.30;7.78;;;7.50;99.90;;;;;;5106348;28;20203;-84
2023/01/11 07:34:44;;;;;;;11.30;7.15;;;7.50;99.90;;;;;;5108357;28;20188;-85
2023/01/11 07:37:09;;;;;;;10.03;6.40;;;7.50;99.90;;;;;;5100497;28;20196;-84
2023/01/11 07:39:35;;;;;;;11.20;8.07;;;7.50;99.90;;;;;;5081953;28;20210;-83
2023/01/11 07:44:46;;;;;;;12.07;7.20;;;7.60;99.90;;;;;;5072131;28;20187;-83
2023/01/11 07:47:13;;;;;;;12.60;8.07;;;7.60;99.90;;;;;;5087717;28;20208;-83
2023/01/11 07:49:39;;;;;;;46.03;25.52;;;7.80;99.90;;;;;;5102513;28;20241;-83
2023/01/11 07:52:05;;;;;;;14.03;10.43;;;7.90;99.90;;;;;;5108124;28;20212;-84
2023/01/11 07:54:30;;;;;;;11.70;8.80;;;8.00;99.90;;;;;;5103284;28;20255;-83
2023/01/11 07:56:56;;;;;;;12.30;8.90;;;8.20;99.90;;;;;;5111015;28;20168;-84
2023/01/11 07:59:22;;;;;;;10.10;7.33;;;8.40;99.90;;;;;;5111672;28;20202;-84
2023/01/11 08:01:48;;;;;;;10.57;8.40;;;8.70;99.90;;;;;;5095755;28;20315;-86
2023/01/11 08:04:13;;;;;;;10.10;7.67;;;9.20;99.90;;;;;;5101529;28;20290;-84
2023/01/11 08:06:40;;;;;;;11.67;8.97;;;9.50;99.90;;;;;;5102121;28;20180;-85
2023/01/11 08:09:06;;;;;;;9.07;5.90;;;9.70;99.90;;;;;;5097861;28;20200;-86
2023/01/11 08:17:00;;;;;;;7.38;6.25;;;10.30;99.90;;;;;;5110332;28;20489;-85
2023/01/11 08:19:26;;;;;;;9.13;5.97;;;10.30;99.90;;;;;;5110495;27;20180;-83
2023/01/11 08:21:52;;;;;;;9.73;6.13;;;10.20;99.90;;;;;;5110180;28;20901;-83
2023/01/11 08:24:17;;;;;;;10.37;6.37;;;10.00;99.90;;;;;;5113020;28;20172;-85
2023/01/11 08:26:44;;;;;;;10.43;6.50;;;9.90;99.90;;;;;;5112690;28;20179;-86
2023/01/11 08:29:09;;;;;;;12.40;6.50;;;9.70;99.90;;;;;;5110092;28;20206;-86
2023/01/11 08:31:35;;;;;;;9.70;7.20;;;9.60;99.90;;;;;;5111647;28;20258;-83
2023/01/11 08:34:01;;;;;;;10.23;6.63;;;9.50;99.90;;;;;;5101475;28;20196;-84
2023/01/11 08:36:26;;;;;;;6.17;5.43;;;9.40;99.90;;;;;;5089938;28;20176;-86
2023/01/11 08:38:58;;;;;;;8.50;5.83;;;9.30;99.90;;;;;;5091320;28;20196;-82
2023/01/11 08:41:24;;;;;;;8.57;6.60;;;9.30;99.90;;;;;;5094553;28;20211;-84
2023/01/11 08:43:50;;;;;;;10.48;6.53;;;9.30;99.90;;;;;;5110581;28;20407;-83
2023/01/11 08:46:17;;;;;;;572.25;267.52;;;9.30;99.90;;;;;;5108777;28;20172;-83
2023/01/11 08:48:45;;;;;;;12.00;8.32;;;9.30;99.90;;;;;;5109612;28;20207;-87
2023/01/11 08:51:12;;;;;;;10.65;7.50;;;9.40;99.90;;;;;;5110839;28;20655;-82
2023/01/11 08:53:38;;;;;;;11.02;7.75;;;9.40;99.90;;;;;;5107156;28;20708;-84
2023/01/11 08:56:04;;;;;;;13.95;7.53;;;9.50;99.90;;;;;;5103159;28;20227;-86
2023/01/11 08:58:30;;;;;;;9.13;6.73;;;9.60;99.90;;;;;;5107005;28;20257;-85
2023/01/11 09:01:01;;;;;;;11.00;7.07;;;9.70;99.90;;;;;;5113236;28;20463;-84
2023/01/11 09:03:28;;;;;;;7.47;5.90;;;9.90;99.90;;;;;;5113146;28;20195;-86
2023/01/11 09:05:57;;;;;;;8.00;6.53;;;10.10;99.90;;;;;;5102629;28;20214;-86
2023/01/11 09:08:24;;;;;;;9.02;6.63;;;10.20;99.90;;;;;;5092685;28;20200;-87
2023/01/11 09:10:50;;;;;;;10.82;7.80;;;10.20;99.90;;;;;;5094584;28;20188;-84
2023/01/11 09:13:16;;;;;;;7.03;5.93;;;10.50;99.90;;;;;;5100674;28;20223;-83
2023/01/11 09:15:41;;;;;;;8.53;5.87;;;10.80;99.90;;;;;;5094440;28;20172;-82
2023/01/11 09:18:07;;;;;;;12.13;7.10;;;10.90;99.90;;;;;;5095221;28;20580;-87
2023/01/11 09:20:33;;;;;;;11.20;7.63;;;11.20;99.90;;;;;;5104064;28;20227;-84
2023/01/11 09:22:58;;;;;;;10.60;7.57;;;11.90;99.90;;;;;;5092907;28;20204;-85
2023/01/11 09:25:24;;;;;;;12.23;7.90;;;12.60;99.90;;;;;;5099192;28;20184;-83
2023/01/11 09:27:51;;;;;;;10.17;7.37;;;12.90;99.90;;;;;;5096667;28;20437;-83
2023/01/11 09:30:19;;;;;;;9.02;5.85;;;13.00;99.90;;;;;;5102278;28;20175;-85
2023/01/11 09:32:46;;;;;;;10.40;6.70;;;13.00;99.90;;;;;;5113303;28;20560;-86
2023/01/11 09:35:14;;;;;;;20.37;15.50;;;13.20;99.90;;;;;;5114683;28;20412;-86
2023/01/11 09:37:43;;;;;;;12.90;9.90;;;13.40;99.90;;;;;;5112347;28;20515;-86
2023/01/11 09:40:20;;;;;;;12.50;9.70;;;13.60;99.90;;;;;;5092433;28;20526;-83
2023/01/11 09:42:51;;;;;;;9.43;5.90;;;13.50;99.90;;;;;;5104716;28;20480;-84
2023/01/11 09:45:29;;;;;;;13.00;11.23;;;13.30;99.90;;;;;;5108513;28;20432;-86
2023/01/11 09:48:14;;;;;;;8.80;7.80;;;13.00;99.90;;;;;;5091970;28;20432;-83
2023/01/11 09:50:46;;;;;;;14.23;10.80;;;12.70;99.90;;;;;;5090472;28;20437;-86
2023/01/11 09:53:37;;;;;;;14.80;10.10;;;12.40;99.90;;;;;;5090169;28;20498;-87
2023/01/11 09:56:08;;;;;;;10.47;7.60;;;12.10;99.90;;;;;;5091089;28;20293;-85
2023/01/11 09:58:53;;;;;;;11.07;7.77;;;12.00;99.90;;;;;;5095518;28;20561;-84
2023/01/11 10:01:44;;;;;;;9.57;8.50;;;12.10;99.90;;;;;;5093063;28;20597;-87
2023/01/11 10:04:40;;;;;;;8.97;6.90;;;12.40;99.90;;;;;;5098919;28;20967;-86
2023/01/11 10:07:26;;;;;;;14.13;11.80;;;12.70;99.90;;;;;;5108574;28;20503;-83
2023/01/11 10:10:35;;;;;;;26.87;17.23;;;13.00;99.90;;;;;;5104198;28;20463;-83
2023/01/11 10:13:21;;;;;;;47.23;26.60;;;13.00;99.90;;;;;;5097694;28;20472;-85
2023/01/11 10:16:08;;;;;;;55.87;31.60;;;12.80;99.90;;;;;;5095949;28;20475;-84
2023/01/11 10:18:42;;;;;;;26.27;15.52;;;12.60;99.90;;;;;;5093446;28;20444;-86
2023/01/11 10:21:22;;;;;;;15.43;10.90;;;12.40;99.90;;;;;;5099707;28;20200;-87
2023/01/11 10:23:52;;;;;;;12.93;10.23;;;12.10;99.90;;;;;;5102902;28;20791;-87
2023/01/11 10:26:27;;;;;;;9.68;7.07;;;11.90;99.90;;;;;;5101576;28;20697;-84
2023/01/11 10:29:16;;;;;;;9.05;7.10;;;11.90;99.90;;;;;;5103552;28;20600;-87
2023/01/11 10:37:52;;;;;;;8.40;6.63;;;11.70;99.90;;;;;;5103662;28;20427;-83
2023/01/11 10:43:46;;;;;;;18.95;12.68;;;11.60;99.90;;;;;;5092861;28;20308;-85
2023/01/11 10:46:25;;;;;;;52.72;34.47;;;11.60;99.90;;;;;;5112534;28;20175;-84
2023/01/11 10:49:08;;;;;;;23.70;17.05;;;11.60;99.90;;;;;;5112301;28;20895;-84
2023/01/11 10:51:43;;;;;;;40.85;22.35;;;11.70;99.90;;;;;;5111911;28;20671;-86
2023/01/11 10:54:17;;;;;;;44.97;23.40;;;11.90;99.90;;;;;;5109587;28;20644;-84
2023/01/11 10:57:01;;;;;;;23.55;15.90;;;11.90;99.90;;;;;;5101373;28;20188;-87
2023/01/11 11:00:12;;;;;;;20.30;12.83;;;12.10;99.90;;;;;;5093380;28;20250;-87
2023/01/11 11:02:59;;;;;;;12.85;10.00;;;12.10;99.90;;;;;;5091904;28;20916;-87
2023/01/11 11:06:01;;;;;;;19.40;13.30;;;12.30;99.90;;;;;;5100772;28;20284;-84
2023/01/11 11:08:39;;;;;;;9.90;7.60;;;12.30;99.90;;;;;;5090074;28;20589;-87
2023/01/11 11:11:37;;;;;;;8.13;7.07;;;12.30;99.90;;;;;;5108148;28;20829;-83
2023/01/11 11:14:40;;;;;;;10.03;6.90;;;12.30;99.90;;;;;;5106277;28;20504;-83
2023/01/11 11:17:34;;;;;;;14.47;7.13;;;12.20;99.90;;;;;;5100223;27;20956;-86
2023/01/11 11:20:22;;;;;;;11.70;7.22;;;12.20;99.90;;;;;;5092116;28;20436;-83
2023/01/11 11:22:53;;;;;;;11.18;8.18;;;12.20;99.90;;;;;;5107252;27;20602;-88
2023/01/11 11:25:34;;;;;;;15.15;8.70;;;12.10;99.90;;;;;;5095761;28;20267;-85
2023/01/11 11:28:06;;;;;;;8.93;7.60;;;12.10;99.90;;;;;;5096380;28;20232;-84
2023/01/11 11:30:33;;;;;;;8.83;7.00;;;12.30;99.90;;;;;;5096057;28;20183;-84
2023/01/11 11:33:03;;;;;;;10.50;7.23;;;12.30;99.90;;;;;;5096229;28;20452;-85
2023/01/11 11:35:38;;;;;;;7.70;6.60;;;12.30;99.90;;;;;;5099150;28;20811;-83
2023/01/11 11:38:04;;;;;;;10.60;6.78;;;12.40;99.90;;;;;;5096442;28;20461;-85
2023/01/11 11:40:36;;;;;;;9.97;7.37;;;12.40;99.90;;;;;;5097181;28;20239;-83
2023/01/11 11:43:20;;;;;;;8.80;7.00;;;12.50;99.90;;;;;;5099386;28;20451;-88
2023/01/11 11:45:55;;;;;;;10.33;6.43;;;12.60;99.90;;;;;;5114479;28;20424;-88
2023/01/11 11:48:21;;;;;;;9.40;7.53;;;12.70;99.90;;;;;;5101210;28;20451;-87
2023/01/11 11:50:49;;;;;;;10.77;7.13;;;12.70;99.90;;;;;;5097112;28;20422;-87
2023/01/11 11:53:52;;;;;;;11.03;6.67;;;12.70;99.90;;;;;;5099931;28;20705;-83
2023/01/11 11:56:34;;;;;;;9.20;6.70;;;12.70;99.90;;;;;;5107031;28;20503;-87
2023/01/11 11:59:06;;;;;;;10.63;6.30;;;12.60;99.90;;;;;;5107976;28;20809;-87
2023/01/11 12:01:35;;;;;;;9.30;6.97;;;12.50;99.90;;;;;;5101575;28;20464;-84
2023/01/11 12:04:17;;;;;;;10.00;6.33;;;12.50;99.90;;;;;;5096581;28;20457;-87
2023/01/11 12:06:51;;;;;;;7.77;6.13;;;12.40;99.90;;;;;;5111799;28;20439;-88
2023/01/11 12:09:28;;;;;;;10.00;7.30;;;12.30;99.90;;;;;;5103332;28;20441;-87
2023/01/11 12:11:55;;;;;;;8.77;7.10;;;12.20;99.90;;;;;;5098767;28;20478;-88
2023/01/11 12:14:28;;;;;;;9.50;6.60;;;12.20;99.90;;;;;;5104948;28;20593;-85
2023/01/11 12:16:56;;;;;;;10.27;7.00;;;12.20;99.90;;;;;;5099063;28;20784;-88
2023/01/11 12:19:33;;;;;;;10.87;7.50;;;12.10;99.90;;;;;;5112429;27;20588;-87
2023/01/11 12:22:18;;;;;;;9.32;6.85;;;12.00;99.90;;;;;;5109500;28;20952;-87
2023/01/11 12:24:46;;;;;;;10.37;6.73;;;12.00;99.90;;;;;;5100578;28;20188;-87
2023/01/11 12:27:52;;;;;;;7.63;5.97;;;11.90;99.90;;;;;;5099636;28;20921;-89
2023/01/11 12:30:32;;;;;;;10.55;6.82;;;11.90;99.90;;;;;;5060032;28;20223;-88
2023/01/11 12:33:41;;;;;;;11.95;7.70;;;11.90;99.90;;;;;;5095022;28;20203;-84
2023/01/11 12:36:24;;;;;;;9.70;6.57;;;11.80;99.90;;;;;;5090059;28;20200;-84
2023/01/11 12:39:37;;;;;;;12.80;7.38;;;11.80;99.90;;;;;;5104260;28;20711;-84
2023/01/11 12:42:17;;;;;;;8.75;6.70;;;11.80;99.90;;;;;;5081684;28;20228;-88
2023/01/11 12:45:07;;;;;;;11.38;6.35;;;11.80;99.90;;;;;;5093042;28;20200;-87
2023/01/11 12:48:02;;;;;;;8.32;6.85;;;11.80;99.90;;;;;;5094089;28;20208;-87
2023/01/11 12:50:31;;;;;;;8.27;6.40;;;11.80;99.90;;;;;;5105662;28;20643;-87
2023/01/11 12:53:15;;;;;;;9.75;7.18;;;11.80;99.90;;;;;;5102128;28;20199;-84
2023/01/11 12:55:55;;;;;;;10.07;6.93;;;11.80;99.90;;;;;;5096600;28;20230;-85
2023/01/11 12:58:56;;;;;;;8.68;5.70;;;11.80;99.90;;;;;;5096765;28;20207;-84
2023/01/11 13:01:40;;;;;;;11.35;8.52;;;11.80;99.90;;;;;;5092975;28;20199;-87
2023/01/11 13:04:19;;;;;;;8.05;6.00;;;11.80;99.90;;;;;;5102694;28;20195;-87
2023/01/11 13:07:02;;;;;;;9.97;7.30;;;11.80;99.90;;;;;;5098790;28;20679;-87
2023/01/11 13:09:37;;;;;;;15.60;9.75;;;11.80;99.90;;;;;;5095935;28;20539;-86
2023/01/11 13:12:07;;;;;;;21.80;10.88;;;11.70;99.90;;;;;;5086600;28;20188;-83
2023/01/11 13:14:39;;;;;;;12.75;9.38;;;11.60;99.90;;;;;;5087963;28;20184;-86
2023/01/11 13:17:32;;;;;;;16.27;11.00;;;11.70;99.90;;;;;;5097052;28;20231;-82
2023/01/11 13:20:19;;;;;;;12.05;7.75;;;11.70;99.90;;;;;;5093175;28;20188;-84
2023/01/11 13:23:03;;;;;;;10.55;8.02;;;11.70;99.90;;;;;;5092750;28;20208;-83
2023/01/11 13:25:37;;;;;;;10.07;7.78;;;11.70;99.90;;;;;;5093514;28;20184;-83
2023/01/11 13:28:32;;;;;;;9.98;7.45;;;11.70;99.90;;;;;;5088493;28;20663;-86
2023/01/11 13:31:01;;;;;;;9.35;8.35;;;11.60;99.90;;;;;;5098502;28;20183;-83
2023/01/11 13:33:29;;;;;;;13.48;10.38;;;11.60;99.90;;;;;;5093908;28;20200;-88
2023/01/11 13:36:13;;;;;;;11.60;8.45;;;11.60;99.90;;;;;;5095885;28;20708;-83
2023/01/11 13:39:09;;;;;;;15.48;10.02;;;11.60;99.90;;;;;;5092176;28;20224;-84
2023/01/11 13:41:45;;;;;;;11.85;9.68;;;11.60;99.90;;;;;;5093403;28;20622;-87
2023/01/11 13:44:30;;;;;;;15.35;10.98;;;11.50;99.90;;;;;;5095141;28;20248;-87
2023/01/11 13:47:08;;;;;;;14.95;10.95;;;11.60;99.90;;;;;;5096078;28;20676;-85
2023/01/11 13:50:05;;;;;;;26.80;18.52;;;11.60;99.90;;;;;;5090610;28;20230;-86